sensor_id;sensor_type;location;lat;lon;timestamp;pressure;altitude;pressure_sealevel;temperature;humidity
64080;BME280;51042;49.696;10.808;2023-02-19T00:01:06;98780.06;;;8.44;100.00
64080;BME280;51042;49.696;10.808;2023-02-19T00:03:31;98773.88;;;8.40;100.00
64080;BME280;51042;49.696;10.808;2023-02-19T00:05:56;98762.56;;;8.38;100.00
64080;BME280;51042;49.696;10.808;2023-02-19T00:08:24;98770.38;;;8.36;100.00
64080;BME280;51042;49.696;10.808;2023-02-19T00:10:50;98774.72;;;8.33;100.00
64080;BME280;51042;49.696;10.808;2023-02-19T00:13:15;98774.28;;;8.35;100.00
64080;BME280;51042;49.696;10.808;2023-02-19T00:15:40;98780.53;;;8.35;100.00
64080;BME280;51042;49.696;10.808;2023-02-19T00:18:05;98776.63;;;8.36;100.00
64080;BME280;51042;49.696;10.808;2023-02-19T00:20:30;98773.13;;;8.36;100.00
64080;BME280;51042;49.696;10.808;2023-02-19T00:22:56;98774.28;;;8.35;100.00
64080;BME280;51042;49.696;10.808;2023-02-19T00:25:21;98759.09;;;8.34;100.00
64080;BME280;51042;49.696;10.808;2023-02-19T00:27:46;98760.69;;;8.31;100.00
64080;BME280;51042;49.696;10.808;2023-02-19T00:30:11;98750.13;;;8.30;100.00
64080;BME280;51042;49.696;10.808;2023-02-19T00:32:36;98758.31;;;8.30;100.00
64080;BME280;51042;49.696;10.808;2023-02-19T00:35:01;98752.06;;;8.29;100.00
64080;BME280;51042;49.696;10.808;2023-02-19T00:37:27;98730.63;;;8.28;100.00
64080;BME280;51042;49.696;10.808;2023-02-19T00:39:52;98739.25;;;8.26;100.00
64080;BME280;51042;49.696;10.808;2023-02-19T00:42:17;98740.03;;;8.23;100.00
64080;BME280;51042;49.696;10.808;2023-02-19T00:44:42;98747.13;;;8.20;100.00
64080;BME280;51042;49.696;10.808;2023-02-19T00:47:07;98732.31;;;8.18;100.00
64080;BME280;51042;49.696;10.808;2023-02-19T00:49:32;98731.97;;;8.16;100.00
64080;BME280;51042;49.696;10.808;2023-02-19T00:51:58;98725.75;;;8.12;100.00
64080;BME280;51042;49.696;10.808;2023-02-19T00:54:23;98727.34;;;8.09;100.00
64080;BME280;51042;49.696;10.808;2023-02-19T00:56:48;98736.75;;;8.08;100.00
64080;BME280;51042;49.696;10.808;2023-02-19T00:59:14;98730.50;;;8.08;100.00
64080;BME280;51042;49.696;10.808;2023-02-19T01:01:39;98735.97;;;8.08;100.00
64080;BME280;51042;49.696;10.808;2023-02-19T01:04:04;98723.09;;;8.05;100.00
64080;BME280;51042;49.696;10.808;2023-02-19T01:06:30;98722.75;;;8.03;100.00
64080;BME280;51042;49.696;10.808;2023-02-19T01:08:56;98711.81;;;8.03;100.00
64080;BME280;51042;49.696;10.808;2023-02-19T01:11:21;98711.84;;;7.99;100.00
64080;BME280;51042;49.696;10.808;2023-02-19T01:13:46;98723.56;;;8.00;100.00
64080;BME280;51042;49.696;10.808;2023-02-19T01:16:16;98713.81;;;7.99;100.00
64080;BME280;51042;49.696;10.808;2023-02-19T01:18:42;98702.88;;;7.99;100.00
64080;BME280;51042;49.696;10.808;2023-02-19T01:21:10;98706.38;;;7.99;100.00
64080;BME280;51042;49.696;10.808;2023-02-19T01:23:36;98716.97;;;7.97;100.00
64080;BME280;51042;49.696;10.808;2023-02-19T01:26:05;98711.13;;;7.95;100.00
64080;BME280;51042;49.696;10.808;2023-02-19T01:28:30;98697.47;;;7.95;100.00
64080;BME280;51042;49.696;10.808;2023-02-19T01:30:59;98697.88;;;7.94;100.00
64080;BME280;51042;49.696;10.808;2023-02-19T01:33:24;98679.53;;;7.94;100.00
64080;BME280;51042;49.696;10.808;2023-02-19T01:35:49;98664.31;;;7.93;100.00
64080;BME280;51042;49.696;10.808;2023-02-19T01:38:14;98674.47;;;7.93;100.00
64080;BME280;51042;49.696;10.808;2023-02-19T01:40:39;98672.16;;;7.91;100.00
64080;BME280;51042;49.696;10.808;2023-02-19T01:43:05;98681.56;;;7.87;100.00
64080;BME280;51042;49.696;10.808;2023-02-19T01:45:34;98671.53;;;7.80;100.00
64080;BME280;51042;49.696;10.808;2023-02-19T01:50:31;98668.88;;;7.73;100.00
64080;BME280;51042;49.696;10.808;2023-02-19T01:52:57;98670.44;;;7.70;100.00
64080;BME280;51042;49.696;10.808;2023-02-19T01:55:23;98664.28;;;7.66;100.00
64080;BME280;51042;49.696;10.808;2023-02-19T01:57:49;98675.59;;;7.65;100.00
64080;BME280;51042;49.696;10.808;2023-02-19T02:00:16;98668.59;;;7.64;100.00
64080;BME280;51042;49.696;10.808;2023-02-19T02:02:42;98679.16;;;7.62;100.00
64080;BME280;51042;49.696;10.808;2023-02-19T02:05:09;98667.09;;;7.59;100.00
64080;BME280;51042;49.696;10.808;2023-02-19T02:07:37;98668.25;;;7.58;100.00
64080;BME280;51042;49.696;10.808;2023-02-19T02:10:21;98655.00;;;7.57;100.00
64080;BME280;51042;49.696;10.808;2023-02-19T02:12:47;98649.97;;;7.55;100.00
64080;BME280;51042;49.696;10.808;2023-02-19T02:15:12;98651.94;;;7.51;100.00
64080;BME280;51042;49.696;10.808;2023-02-19T02:17:49;98645.31;;;7.52;100.00
64080;BME280;51042;49.696;10.808;2023-02-19T02:33:26;98621.56;;;7.49;100.00
64080;BME280;51042;49.696;10.808;2023-02-19T02:35:57;98615.34;;;7.49;100.00
64080;BME280;51042;49.696;10.808;2023-02-19T02:38:24;98617.28;;;7.48;100.00
64080;BME280;51042;49.696;10.808;2023-02-19T02:40:51;98618.06;;;7.49;100.00
64080;BME280;51042;49.696;10.808;2023-02-19T02:43:17;98623.91;;;7.51;100.00
64080;BME280;51042;49.696;10.808;2023-02-19T02:45:43;98616.44;;;7.51;100.00
64080;BME280;51042;49.696;10.808;2023-02-19T02:53:15;98603.56;;;7.55;100.00
64080;BME280;51042;49.696;10.808;2023-02-19T02:56:00;98610.97;;;7.55;100.00
64080;BME280;51042;49.696;10.808;2023-02-19T02:58:27;98606.63;;;7.57;100.00
64080;BME280;51042;49.696;10.808;2023-02-19T03:00:55;98607.06;;;7.56;100.00
64080;BME280;51042;49.696;10.808;2023-02-19T03:03:41;98620.28;;;7.57;100.00
64080;BME280;51042;49.696;10.808;2023-02-19T03:06:07;98609.72;;;7.59;100.00
64080;BME280;51042;49.696;10.808;2023-02-19T03:08:39;98606.59;;;7.61;100.00
64080;BME280;51042;49.696;10.808;2023-02-19T03:11:07;98591.34;;;7.63;100.00
64080;BME280;51042;49.696;10.808;2023-02-19T03:13:54;98598.75;;;7.63;100.00
64080;BME280;51042;49.696;10.808;2023-02-19T03:16:39;98594.06;;;7.63;100.00
64080;BME280;51042;49.696;10.808;2023-02-19T03:19:25;98602.69;;;7.62;100.00
64080;BME280;51042;49.696;10.808;2023-02-19T03:22:02;98596.44;;;7.61;100.00
64080;BME280;51042;49.696;10.808;2023-02-19T03:24:34;98595.28;;;7.62;100.00
64080;BME280;51042;49.696;10.808;2023-02-19T03:27:19;98583.13;;;7.63;100.00
64080;BME280;51042;49.696;10.808;2023-02-19T03:29:46;98583.50;;;7.65;100.00
64080;BME280;51042;49.696;10.808;2023-02-19T03:32:17;98581.56;;;7.66;100.00
64080;BME280;51042;49.696;10.808;2023-02-19T03:34:48;98589.75;;;7.66;100.00
64080;BME280;51042;49.696;10.808;2023-02-19T03:37:26;98582.34;;;7.66;100.00
64080;BME280;51042;49.696;10.808;2023-02-19T03:39:52;98581.94;;;7.68;100.00
64080;BME280;51042;49.696;10.808;2023-02-19T03:44:45;98577.25;;;7.68;100.00
64080;BME280;51042;49.696;10.808;2023-02-19T03:47:16;98582.72;;;7.68;100.00
64080;BME280;51042;49.696;10.808;2023-02-19T03:50:02;98579.53;;;7.70;100.00
64080;BME280;51042;49.696;10.808;2023-02-19T03:52:46;98582.28;;;7.70;100.00
64080;BME280;51042;49.696;10.808;2023-02-19T03:55:21;98583.06;;;7.70;100.00
64080;BME280;51042;49.696;10.808;2023-02-19T03:57:51;98581.47;;;7.73;100.00
64080;BME280;51042;49.696;10.808;2023-02-19T04:00:31;98584.97;;;7.73;100.00
64080;BME280;51042;49.696;10.808;2023-02-19T04:03:01;98574.81;;;7.74;100.00
64080;BME280;51042;49.696;10.808;2023-02-19T04:05:30;98583.03;;;7.74;100.00
64080;BME280;51042;49.696;10.808;2023-02-19T04:07:56;98593.16;;;7.73;100.00
64080;BME280;51042;49.696;10.808;2023-02-19T04:10:23;98588.88;;;7.72;100.00
64080;BME280;51042;49.696;10.808;2023-02-19T04:12:59;98600.59;;;7.73;100.00
64080;BME280;51042;49.696;10.808;2023-02-19T04:15:26;98587.72;;;7.73;100.00
64080;BME280;51042;49.696;10.808;2023-02-19T04:17:55;98579.50;;;7.73;100.00
64080;BME280;51042;49.696;10.808;2023-02-19T04:20:21;98584.19;;;7.73;100.00
64080;BME280;51042;49.696;10.808;2023-02-19T04:22:48;98584.97;;;7.73;100.00
64080;BME280;51042;49.696;10.808;2023-02-19T04:25:13;98581.81;;;7.75;100.00
64080;BME280;51042;49.696;10.808;2023-02-19T04:27:39;98594.34;;;7.72;100.00
64080;BME280;51042;49.696;10.808;2023-02-19T04:30:05;98581.88;;;7.71;100.00
64080;BME280;51042;49.696;10.808;2023-02-19T04:32:31;98595.13;;;7.73;100.00
64080;BME280;51042;49.696;10.808;2023-02-19T04:34:56;98590.44;;;7.73;100.00
64080;BME280;51042;49.696;10.808;2023-02-19T04:37:21;98593.16;;;7.73;100.00
64080;BME280;51042;49.696;10.808;2023-02-19T04:39:46;98604.44;;;7.75;100.00
64080;BME280;51042;49.696;10.808;2023-02-19T04:42:11;98603.25;;;7.76;100.00
64080;BME280;51042;49.696;10.808;2023-02-19T04:44:36;98595.84;;;7.77;100.00
64080;BME280;51042;49.696;10.808;2023-02-19T04:47:02;98602.47;;;7.76;100.00
64080;BME280;51042;49.696;10.808;2023-02-19T04:49:27;98602.84;;;7.78;100.00
64080;BME280;51042;49.696;10.808;2023-02-19T04:51:52;98598.56;;;7.77;100.00
64080;BME280;51042;49.696;10.808;2023-02-19T04:54:18;98602.47;;;7.76;100.00
64080;BME280;51042;49.696;10.808;2023-02-19T04:56:43;98607.94;;;7.76;100.00
64080;BME280;51042;49.696;10.808;2023-02-19T04:59:08;98609.50;;;7.77;100.00
64080;BME280;51042;49.696;10.808;2023-02-19T05:01:33;98605.59;;;7.78;100.00
64080;BME280;51042;49.696;10.808;2023-02-19T05:03:59;98609.09;;;7.78;100.00
64080;BME280;51042;49.696;10.808;2023-02-19T05:06:24;98599.72;;;7.79;100.00
64080;BME280;51042;49.696;10.808;2023-02-19T05:08:49;98600.06;;;7.82;100.00
64080;BME280;51042;49.696;10.808;2023-02-19T05:11:14;98593.41;;;7.83;100.00
64080;BME280;51042;49.696;10.808;2023-02-19T05:13:39;98597.69;;;7.84;100.00
64080;BME280;51042;49.696;10.808;2023-02-19T05:16:06;98596.53;;;7.85;100.00
64080;BME280;51042;49.696;10.808;2023-02-19T05:18:31;98591.84;;;7.85;100.00
64080;BME280;51042;49.696;10.808;2023-02-19T05:20:58;98591.06;;;7.85;100.00
64080;BME280;51042;49.696;10.808;2023-02-19T05:23:24;98605.50;;;7.85;100.00
64080;BME280;51042;49.696;10.808;2023-02-19T05:25:51;98587.56;;;7.84;100.00
64080;BME280;51042;49.696;10.808;2023-02-19T05:28:16;98602.75;;;7.85;100.00
64080;BME280;51042;49.696;10.808;2023-02-19T05:30:42;98601.22;;;7.84;100.00
64080;BME280;51042;49.696;10.808;2023-02-19T05:33:07;98601.63;;;7.83;100.00
64080;BME280;51042;49.696;10.808;2023-02-19T05:35:32;98601.63;;;7.83;100.00
64080;BME280;51042;49.696;10.808;2023-02-19T05:37:58;98603.56;;;7.82;100.00
64080;BME280;51042;49.696;10.808;2023-02-19T05:40:23;98610.22;;;7.81;100.00
64080;BME280;51042;49.696;10.808;2023-02-19T05:42:48;98605.97;;;7.80;100.00
64080;BME280;51042;49.696;10.808;2023-02-19T05:45:13;98611.75;;;7.82;100.00
64080;BME280;51042;49.696;10.808;2023-02-19T05:47:38;98612.53;;;7.83;100.00
64080;BME280;51042;49.696;10.808;2023-02-19T05:50:04;98616.88;;;7.80;100.00
64080;BME280;51042;49.696;10.808;2023-02-19T05:52:29;98613.78;;;7.78;100.00
64080;BME280;51042;49.696;10.808;2023-02-19T05:54:54;98624.34;;;7.76;100.00
64080;BME280;51042;49.696;10.808;2023-02-19T05:57:19;98619.31;;;7.74;100.00
64080;BME280;51042;49.696;10.808;2023-02-19T05:59:45;98607.16;;;7.75;100.00
64080;BME280;51042;49.696;10.808;2023-02-19T06:02:10;98622.78;;;7.75;100.00
64080;BME280;51042;49.696;10.808;2023-02-19T06:04:35;98629.03;;;7.75;100.00
64080;BME280;51042;49.696;10.808;2023-02-19T06:07:00;98634.09;;;7.77;100.00
64080;BME280;51042;49.696;10.808;2023-02-19T06:09:26;98630.16;;;7.78;100.00
64080;BME280;51042;49.696;10.808;2023-02-19T06:11:51;98649.28;;;7.78;100.00
64080;BME280;51042;49.696;10.808;2023-02-19T06:14:16;98636.03;;;7.76;100.00
64080;BME280;51042;49.696;10.808;2023-02-19T06:16:41;98634.09;;;7.77;100.00
64080;BME280;51042;49.696;10.808;2023-02-19T06:19:06;98634.09;;;7.77;100.00
64080;BME280;51042;49.696;10.808;2023-02-19T06:21:32;98644.22;;;7.76;100.00
64080;BME280;51042;49.696;10.808;2023-02-19T06:23:57;98645.00;;;7.77;100.00
64080;BME280;51042;49.696;10.808;2023-02-19T06:26:23;98650.47;;;7.77;100.00
64080;BME280;51042;49.696;10.808;2023-02-19T06:28:49;98650.47;;;7.77;100.00
64080;BME280;51042;49.696;10.808;2023-02-19T06:31:14;98647.75;;;7.77;100.00
64080;BME280;51042;49.696;10.808;2023-02-19T06:33:39;98653.56;;;7.79;100.00
64080;BME280;51042;49.696;10.808;2023-02-19T06:36:06;98652.81;;;7.78;100.00
64080;BME280;51042;49.696;10.808;2023-02-19T06:38:31;98649.66;;;7.80;100.00
64080;BME280;51042;49.696;10.808;2023-02-19T06:41:00;98665.28;;;7.79;100.00
64080;BME280;51042;49.696;10.808;2023-02-19T06:43:25;98666.06;;;7.80;100.00
64080;BME280;51042;49.696;10.808;2023-02-19T06:45:51;98667.59;;;7.81;100.00
64080;BME280;51042;49.696;10.808;2023-02-19T06:48:16;98656.31;;;7.79;100.00
64080;BME280;51042;49.696;10.808;2023-02-19T06:50:41;98664.44;;;7.83;100.00
64080;BME280;51042;49.696;10.808;2023-02-19T06:53:06;98662.09;;;7.85;100.00
64080;BME280;51042;49.696;10.808;2023-02-19T06:55:33;98672.66;;;7.83;100.00
64080;BME280;51042;49.696;10.808;2023-02-19T06:57:58;98680.81;;;7.86;100.00
64080;BME280;51042;49.696;10.808;2023-02-19T07:00:23;98673.72;;;7.92;100.00
64080;BME280;51042;49.696;10.808;2023-02-19T07:02:48;98691.91;;;8.02;100.00
64080;BME280;51042;49.696;10.808;2023-02-19T07:05:13;98695.44;;;8.03;100.00
64080;BME280;51042;49.696;10.808;2023-02-19T07:07:39;98693.09;;;8.01;100.00
64080;BME280;51042;49.696;10.808;2023-02-19T07:10:04;98705.59;;;8.02;100.00
64080;BME280;51042;49.696;10.808;2023-02-19T07:12:29;98699.81;;;7.97;100.00
64080;BME280;51042;49.696;10.808;2023-02-19T07:14:54;98695.91;;;7.94;100.00
64080;BME280;51042;49.696;10.808;2023-02-19T07:17:19;98692.78;;;7.96;100.00
64080;BME280;51042;49.696;10.808;2023-02-19T07:19:45;98700.16;;;7.99;100.00
64080;BME280;51042;49.696;10.808;2023-02-19T07:22:10;98704.41;;;8.03;100.00
64080;BME280;51042;49.696;10.808;2023-02-19T07:24:35;98694.59;;;8.06;100.00
64080;BME280;51042;49.696;10.808;2023-02-19T07:27:00;98698.47;;;8.08;100.00
64080;BME280;51042;49.696;10.808;2023-02-19T07:29:25;98716.84;;;8.08;100.00
64080;BME280;51042;49.696;10.808;2023-02-19T07:31:50;98714.13;;;8.04;100.00
64080;BME280;51042;49.696;10.808;2023-02-19T07:34:15;98725.06;;;8.04;100.00
64080;BME280;51042;49.696;10.808;2023-02-19T07:36:41;98724.66;;;8.06;100.00
64080;BME280;51042;49.696;10.808;2023-02-19T07:39:06;98722.69;;;8.06;100.00
64080;BME280;51042;49.696;10.808;2023-02-19T07:41:31;98725.03;;;8.08;100.00
64080;BME280;51042;49.696;10.808;2023-02-19T07:43:56;98721.47;;;8.11;100.00
64080;BME280;51042;49.696;10.808;2023-02-19T07:46:21;98726.06;;;8.17;100.00
64080;BME280;51042;49.696;10.808;2023-02-19T07:48:46;98721.34;;;8.22;100.00
64080;BME280;51042;49.696;10.808;2023-02-19T07:51:13;98729.91;;;8.24;100.00
64080;BME280;51042;49.696;10.808;2023-02-19T07:53:40;98738.94;;;8.20;100.00
64080;BME280;51042;49.696;10.808;2023-02-19T07:56:06;98729.63;;;8.14;100.00
64080;BME280;51042;49.696;10.808;2023-02-19T07:58:31;98744.09;;;8.11;100.00
64080;BME280;51042;49.696;10.808;2023-02-19T08:01:04;98747.22;;;8.13;100.00
64080;BME280;51042;49.696;10.808;2023-02-19T08:03:30;98747.22;;;8.13;100.00
64080;BME280;51042;49.696;10.808;2023-02-19T08:05:55;98756.13;;;8.17;100.00
64080;BME280;51042;49.696;10.808;2023-02-19T08:08:21;98762.28;;;8.25;100.00
64080;BME280;51042;49.696;10.808;2023-02-19T08:10:46;98771.22;;;8.29;100.00
64080;BME280;51042;49.696;10.808;2023-02-19T08:13:30;98759.03;;;8.37;100.00
64080;BME280;51042;49.696;10.808;2023-02-19T08:16:07;98762.16;;;8.39;100.00
64080;BME280;51042;49.696;10.808;2023-02-19T08:18:33;98774.22;;;8.42;100.00
64080;BME280;51042;49.696;10.808;2023-02-19T08:20:58;98770.22;;;8.46;100.00
64080;BME280;51042;49.696;10.808;2023-02-19T08:23:24;98763.97;;;8.49;100.00
64080;BME280;51042;49.696;10.808;2023-02-19T08:25:50;98777.22;;;8.51;100.00
64080;BME280;51042;49.696;10.808;2023-02-19T08:28:16;98784.66;;;8.50;100.00
64080;BME280;51042;49.696;10.808;2023-02-19T08:30:42;98776.03;;;8.52;100.00
64080;BME280;51042;49.696;10.808;2023-02-19T08:33:09;98779.13;;;8.54;100.00
64080;BME280;51042;49.696;10.808;2023-02-19T08:35:34;98782.47;;;8.65;100.00
64080;BME280;51042;49.696;10.808;2023-02-19T08:38:00;98784.66;;;8.77;100.00
64080;BME280;51042;49.696;10.808;2023-02-19T08:40:25;98787.03;;;9.02;100.00
64080;BME280;51042;49.696;10.808;2023-02-19T08:42:50;98802.06;;;9.17;100.00
64080;BME280;51042;49.696;10.808;2023-02-19T08:45:16;98804.66;;;9.24;100.00
64080;BME280;51042;49.696;10.808;2023-02-19T08:47:41;98808.66;;;9.20;100.00
64080;BME280;51042;49.696;10.808;2023-02-19T08:50:06;98814.81;;;9.00;100.00
64080;BME280;51042;49.696;10.808;2023-02-19T08:52:32;98814.09;;;8.96;100.00
64080;BME280;51042;49.696;10.808;2023-02-19T08:54:57;98816.34;;;9.01;100.00
64080;BME280;51042;49.696;10.808;2023-02-19T08:57:23;98816.16;;;8.89;100.00
64080;BME280;51042;49.696;10.808;2023-02-19T08:59:48;98812.22;;;8.90;100.00
64080;BME280;51042;49.696;10.808;2023-02-19T09:02:14;98825.59;;;8.84;100.00
64080;BME280;51042;49.696;10.808;2023-02-19T09:04:39;98818.22;;;8.81;100.00
64080;BME280;51042;49.696;10.808;2023-02-19T09:07:04;98821.72;;;8.82;100.00
64080;BME280;51042;49.696;10.808;2023-02-19T09:09:32;98835.84;;;8.80;100.00
64080;BME280;51042;49.696;10.808;2023-02-19T09:11:57;98835.09;;;8.76;100.00
64080;BME280;51042;49.696;10.808;2023-02-19T09:14:22;98843.75;;;8.71;100.00
64080;BME280;51042;49.696;10.808;2023-02-19T09:16:47;98846.94;;;8.70;100.00
64080;BME280;51042;49.696;10.808;2023-02-19T09:19:12;98860.88;;;8.79;100.00
64080;BME280;51042;49.696;10.808;2023-02-19T09:21:37;98864.31;;;8.83;100.00
64080;BME280;51042;49.696;10.808;2023-02-19T09:24:02;98862.19;;;8.97;100.00
64080;BME280;51042;49.696;10.808;2023-02-19T09:26:28;98858.56;;;9.04;99.46
64080;BME280;51042;49.696;10.808;2023-02-19T09:28:53;98860.53;;;9.04;100.00
64080;BME280;51042;49.696;10.808;2023-02-19T09:31:18;98872.72;;;8.99;100.00
64080;BME280;51042;49.696;10.808;2023-02-19T09:33:44;98866.66;;;8.84;100.00
64080;BME280;51042;49.696;10.808;2023-02-19T09:36:10;98864.00;;;8.77;100.00
64080;BME280;51042;49.696;10.808;2023-02-19T09:38:35;98859.38;;;8.74;100.00
64080;BME280;51042;49.696;10.808;2023-02-19T09:41:23;98857.72;;;8.80;100.00
64080;BME280;51042;49.696;10.808;2023-02-19T09:43:45;98863.53;;;8.82;100.00
64080;BME280;51042;49.696;10.808;2023-02-19T09:46:18;98867.13;;;8.79;100.00
64080;BME280;51042;49.696;10.808;2023-02-19T09:48:46;98881.28;;;8.71;100.00
64080;BME280;51042;49.696;10.808;2023-02-19T09:51:11;98882.13;;;8.68;100.00
64080;BME280;51042;49.696;10.808;2023-02-19T09:53:41;98873.94;;;8.64;100.00
64080;BME280;51042;49.696;10.808;2023-02-19T09:56:08;98871.22;;;8.64;100.00
64080;BME280;51042;49.696;10.808;2023-02-19T09:58:34;98874.69;;;8.68;100.00
64080;BME280;51042;49.696;10.808;2023-02-19T10:01:01;98865.16;;;8.80;100.00
64080;BME280;51042;49.696;10.808;2023-02-19T10:03:28;98874.38;;;8.93;100.00
64080;BME280;51042;49.696;10.808;2023-02-19T10:05:58;98864.84;;;9.01;100.00
64080;BME280;51042;49.696;10.808;2023-02-19T10:08:25;98882.03;;;9.05;100.00
64080;BME280;51042;49.696;10.808;2023-02-19T10:10:51;98879.94;;;9.13;100.00
64080;BME280;51042;49.696;10.808;2023-02-19T10:13:18;98885.41;;;9.39;100.00
64080;BME280;51042;49.696;10.808;2023-02-19T10:15:51;98899.78;;;9.47;98.00
64080;BME280;51042;49.696;10.808;2023-02-19T10:18:21;98899.25;;;9.56;98.78
64080;BME280;51042;49.696;10.808;2023-02-19T10:20:46;98898.13;;;9.53;97.68
64080;BME280;51042;49.696;10.808;2023-02-19T10:23:12;98902.88;;;9.49;98.15
64080;BME280;51042;49.696;10.808;2023-02-19T10:25:40;98895.50;;;9.46;98.12
64080;BME280;51042;49.696;10.808;2023-02-19T10:28:08;98906.47;;;9.42;98.72
64080;BME280;51042;49.696;10.808;2023-02-19T10:30:37;98902.97;;;9.42;98.20
64080;BME280;51042;49.696;10.808;2023-02-19T10:33:04;98900.22;;;9.42;98.28
64080;BME280;51042;49.696;10.808;2023-02-19T10:35:34;98913.31;;;9.58;98.14
64080;BME280;51042;49.696;10.808;2023-02-19T10:38:00;98921.25;;;9.49;100.00
64080;BME280;51042;49.696;10.808;2023-02-19T10:40:25;98918.63;;;9.41;100.00
64080;BME280;51042;49.696;10.808;2023-02-19T10:42:55;98926.44;;;9.43;100.00
64080;BME280;51042;49.696;10.808;2023-02-19T10:45:24;98934.16;;;9.52;100.00
64080;BME280;51042;49.696;10.808;2023-02-19T10:47:49;98933.06;;;9.46;100.00
64080;BME280;51042;49.696;10.808;2023-02-19T10:50:18;98927.59;;;9.46;100.00
64080;BME280;51042;49.696;10.808;2023-02-19T10:52:44;98945.00;;;9.59;100.00
64080;BME280;51042;49.696;10.808;2023-02-19T10:55:20;98943.59;;;9.74;98.75
64080;BME280;51042;49.696;10.808;2023-02-19T10:57:48;98928.44;;;9.89;98.58
64080;BME280;51042;49.696;10.808;2023-02-19T11:02:39;98924.69;;;10.03;96.66
64080;BME280;51042;49.696;10.808;2023-02-19T11:07:33;98925.59;;;9.96;95.83
64080;BME280;51042;49.696;10.808;2023-02-19T11:09:59;98928.88;;;10.11;95.50
64080;BME280;51042;49.696;10.808;2023-02-19T11:12:28;98928.44;;;10.36;94.18
64080;BME280;51042;49.696;10.808;2023-02-19T11:14:55;98931.69;;;10.50;91.60
64080;BME280;51042;49.696;10.808;2023-02-19T11:17:24;98934.16;;;10.64;90.60
64080;BME280;51042;49.696;10.808;2023-02-19T11:19:59;98928.53;;;10.72;89.16
64080;BME280;51042;49.696;10.808;2023-02-19T11:22:32;98939.50;;;10.52;90.00
64080;BME280;51042;49.696;10.808;2023-02-19T11:25:03;98942.94;;;10.36;89.02
64080;BME280;51042;49.696;10.808;2023-02-19T11:27:29;98928.00;;;10.17;89.69
64080;BME280;51042;49.696;10.808;2023-02-19T11:30:25;98940.31;;;10.06;90.11
64080;BME280;51042;49.696;10.808;2023-02-19T11:32:39;98945.38;;;10.07;87.71
64080;BME280;51042;49.696;10.808;2023-02-19T11:35:26;98935.78;;;10.19;88.26
64080;BME280;51042;49.696;10.808;2023-02-19T11:40:19;98937.22;;;10.27;87.30
64080;BME280;51042;49.696;10.808;2023-02-19T11:42:48;98938.66;;;10.55;86.08
64080;BME280;51042;49.696;10.808;2023-02-19T11:48:06;98956.09;;;11.04;83.84
64080;BME280;51042;49.696;10.808;2023-02-19T11:50:41;98952.38;;;10.75;84.68
64080;BME280;51042;49.696;10.808;2023-02-19T11:53:16;98965.25;;;10.58;86.70
64080;BME280;51042;49.696;10.808;2023-02-19T12:06:39;98972.34;;;9.62;99.63
64080;BME280;51042;49.696;10.808;2023-02-19T12:14:23;99005.34;;;9.25;100.00
64080;BME280;51042;49.696;10.808;2023-02-19T12:16:53;98984.03;;;9.09;100.00
64080;BME280;51042;49.696;10.808;2023-02-19T12:19:36;98984.09;;;9.06;100.00
64080;BME280;51042;49.696;10.808;2023-02-19T12:35:37;98982.09;;;9.36;100.00
64080;BME280;51042;49.696;10.808;2023-02-19T12:40:37;98989.81;;;9.45;100.00
64080;BME280;51042;49.696;10.808;2023-02-19T12:43:22;98996.38;;;9.51;100.00
64080;BME280;51042;49.696;10.808;2023-02-19T12:45:52;98986.19;;;9.52;100.00
64080;BME280;51042;49.696;10.808;2023-02-19T12:48:32;98975.88;;;9.59;100.00
64080;BME280;51042;49.696;10.808;2023-02-19T12:51:04;98985.00;;;9.79;100.00
64080;BME280;51042;49.696;10.808;2023-02-19T12:53:38;98990.38;;;9.87;100.00
64080;BME280;51042;49.696;10.808;2023-02-19T12:56:05;98983.81;;;9.80;100.00
64080;BME280;51042;49.696;10.808;2023-02-19T12:58:40;98986.91;;;9.82;100.00
64080;BME280;51042;49.696;10.808;2023-02-19T13:01:07;98993.03;;;10.40;100.00
64080;BME280;51042;49.696;10.808;2023-02-19T13:03:34;98987.84;;;10.46;99.31
64080;BME280;51042;49.696;10.808;2023-02-19T13:08:30;98984.69;;;10.47;99.77
64080;BME280;51042;49.696;10.808;2023-02-19T13:10:59;98999.34;;;10.37;99.87
64080;BME280;51042;49.696;10.808;2023-02-19T13:15:52;98996.00;;;10.26;98.32
64080;BME280;51042;49.696;10.808;2023-02-19T13:18:23;98970.41;;;10.09;94.26
64080;BME280;51042;49.696;10.808;2023-02-19T13:20:50;98998.72;;;10.03;93.03
64080;BME280;51042;49.696;10.808;2023-02-19T13:23:31;98988.00;;;10.12;91.33
64080;BME280;51042;49.696;10.808;2023-02-19T13:36:43;98968.66;;;9.72;89.75
64080;BME280;51042;49.696;10.808;2023-02-19T13:39:12;98954.25;;;9.68;90.05
64080;BME280;51042;49.696;10.808;2023-02-19T13:41:41;98976.66;;;9.60;90.22
64080;BME280;51042;49.696;10.808;2023-02-19T13:44:15;98968.03;;;9.61;93.03
64080;BME280;51042;49.696;10.808;2023-02-19T13:46:42;98978.22;;;9.61;94.42
64080;BME280;51042;49.696;10.808;2023-02-19T13:51:54;98983.38;;;9.59;94.70
64080;BME280;51042;49.696;10.808;2023-02-19T13:54:21;98986.81;;;9.63;94.03
64080;BME280;51042;49.696;10.808;2023-02-19T13:56:47;98986.72;;;9.70;91.36
64080;BME280;51042;49.696;10.808;2023-02-19T14:04:22;98982.63;;;9.81;88.79
64080;BME280;51042;49.696;10.808;2023-02-19T14:17:02;99015.78;;;9.64;88.37
64080;BME280;51042;49.696;10.808;2023-02-19T14:24:51;99019.78;;;9.56;88.60
64080;BME280;51042;49.696;10.808;2023-02-19T14:27:17;99028.09;;;9.49;88.12
64080;BME280;51042;49.696;10.808;2023-02-19T14:29:42;99032.09;;;9.44;89.04
64080;BME280;51042;49.696;10.808;2023-02-19T14:32:09;99038.84;;;9.36;87.89
64080;BME280;51042;49.696;10.808;2023-02-19T14:34:37;99036.78;;;9.43;88.21
64080;BME280;51042;49.696;10.808;2023-02-19T14:37:03;99033.97;;;9.51;88.24